createdAt,value
2023-04-30T00:00:33.923Z,5.68
2023-04-30T00:03:01.811Z,5.97
2023-04-30T00:05:29.682Z,5.55
2023-04-30T00:07:59.159Z,6.45
2023-04-30T00:10:27.373Z,5.68
2023-04-30T00:12:55.119Z,5.90
2023-04-30T00:15:23.230Z,5.55
2023-04-30T00:17:51.008Z,6.03
2023-04-30T00:20:18.790Z,5.57
2023-04-30T00:22:46.789Z,5.43
2023-04-30T00:25:16.544Z,5.40
2023-04-30T00:27:44.377Z,5.43
2023-04-30T00:30:12.764Z,5.15
2023-04-30T00:32:40.547Z,4.85
2023-04-30T00:35:08.663Z,5.05
2023-04-30T00:37:36.422Z,5.30
2023-04-30T00:40:04.789Z,4.70
2023-04-30T00:42:33.903Z,4.55
2023-04-30T00:45:01.952Z,4.40
2023-04-30T00:47:29.736Z,4.60
2023-04-30T00:49:57.533Z,4.25
2023-04-30T00:52:25.654Z,4.57
2023-04-30T00:54:54.390Z,4.50
2023-04-30T00:57:22.483Z,5.05
2023-04-30T00:59:52.023Z,4.82
2023-04-30T01:02:21.376Z,4.55
2023-04-30T01:04:49.564Z,5.22
2023-04-30T01:07:17.718Z,5.30
2023-04-30T01:09:45.771Z,5.85
2023-04-30T01:12:17.934Z,4.90
2023-04-30T01:14:53.299Z,5.10
2023-04-30T01:17:29.323Z,5.35
2023-04-30T01:19:57.744Z,5.68
2023-04-30T01:22:31.671Z,5.65
2023-04-30T01:25:13.838Z,5.40
2023-04-30T01:28:00.035Z,5.22
2023-04-30T01:30:28.382Z,5.10
2023-04-30T01:32:56.757Z,5.35
2023-04-30T01:35:28.122Z,6.20
2023-04-30T01:38:01.741Z,5.30
2023-04-30T01:40:35.185Z,5.80
2023-04-30T01:43:08.691Z,6.88
2023-04-30T01:45:46.841Z,7.63
2023-04-30T01:48:20.221Z,7.25
2023-04-30T01:50:49.417Z,6.97
2023-04-30T01:53:19.412Z,6.35
2023-04-30T01:55:50.903Z,6.72
2023-04-30T01:58:21.942Z,7.03
2023-04-30T02:00:49.747Z,7.28
2023-04-30T02:03:17.913Z,7.93
2023-04-30T02:05:45.805Z,8.95
2023-04-30T02:08:13.964Z,9.27
2023-04-30T02:10:41.795Z,9.65
2023-04-30T02:13:09.728Z,8.05
2023-04-30T02:15:39.118Z,8.20
2023-04-30T02:18:06.948Z,8.30
2023-04-30T02:20:34.796Z,8.98
2023-04-30T02:23:02.602Z,8.35
2023-04-30T02:25:30.461Z,8.40
2023-04-30T02:27:58.469Z,8.15
2023-04-30T02:30:26.274Z,8.27
2023-04-30T02:32:55.433Z,8.85
2023-04-30T02:35:23.465Z,8.63
2023-04-30T02:37:51.437Z,8.25
2023-04-30T02:40:19.486Z,8.32
2023-04-30T02:42:48.507Z,8.43
2023-04-30T02:45:18.967Z,8.45
2023-04-30T02:47:47.246Z,8.05
2023-04-30T02:50:16.521Z,9.73
2023-04-30T02:52:46.029Z,8.40
2023-04-30T02:55:13.823Z,7.65
2023-04-30T02:57:41.596Z,8.32
2023-04-30T03:00:09.987Z,8.25
2023-04-30T03:02:38.153Z,7.93
2023-04-30T03:05:06.411Z,7.88
2023-04-30T03:07:35.805Z,8.30
2023-04-30T03:10:03.871Z,7.57
2023-04-30T03:12:31.873Z,7.72
2023-04-30T03:14:59.684Z,7.32
2023-04-30T03:17:27.862Z,7.50
2023-04-30T03:19:56.177Z,7.55
2023-04-30T03:22:26.710Z,7.95
2023-04-30T03:24:56.201Z,7.43
2023-04-30T03:27:24.415Z,8.10
2023-04-30T03:29:52.346Z,7.07
2023-04-30T03:32:20.342Z,7.70
2023-04-30T03:34:48.346Z,8.10
2023-04-30T03:37:16.404Z,7.55
2023-04-30T03:39:44.282Z,7.72
2023-04-30T03:42:13.590Z,7.03
2023-04-30T03:44:41.436Z,8.38
2023-04-30T03:47:09.802Z,6.53
2023-04-30T03:49:38.020Z,7.55
2023-04-30T03:52:07.718Z,7.72
2023-04-30T03:54:35.441Z,8.18
2023-04-30T03:57:03.933Z,8.85
2023-04-30T03:59:33.484Z,7.55
2023-04-30T04:02:01.857Z,6.97
2023-04-30T04:04:30.029Z,7.50
2023-04-30T04:06:57.906Z,7.57
2023-04-30T04:09:25.759Z,7.72
2023-04-30T04:11:53.736Z,7.43
2023-04-30T04:14:21.498Z,7.80
2023-04-30T04:16:50.697Z,7.90
2023-04-30T04:19:18.481Z,8.85
2023-04-30T04:21:46.268Z,8.82
2023-04-30T04:24:14.048Z,8.23
2023-04-30T04:26:42.245Z,8.85
2023-04-30T04:29:10.992Z,8.43
2023-04-30T04:31:42.062Z,7.45
2023-04-30T04:34:11.543Z,7.75
2023-04-30T04:36:39.746Z,7.03
2023-04-30T04:39:07.493Z,7.60
2023-04-30T04:41:36.098Z,7.20
2023-04-30T04:44:04.624Z,6.85
2023-04-30T04:46:32.986Z,6.38
2023-04-30T04:49:01.116Z,7.05
2023-04-30T04:51:30.210Z,7.28
2023-04-30T04:53:57.996Z,6.95
2023-04-30T04:56:26.023Z,7.25
2023-04-30T04:58:54.037Z,6.78
2023-04-30T05:01:22.050Z,7.35
2023-04-30T05:03:49.944Z,6.93
2023-04-30T05:06:17.944Z,6.72
2023-04-30T05:08:47.303Z,6.47
2023-04-30T05:11:29.395Z,7.32
2023-04-30T05:13:58.402Z,6.35
2023-04-30T05:16:26.487Z,6.43
2023-04-30T05:18:54.572Z,5.43
2023-04-30T05:21:23.096Z,5.22
2023-04-30T05:23:52.204Z,5.93
2023-04-30T05:26:19.988Z,5.30
2023-04-30T05:28:47.976Z,5.10
2023-04-30T05:31:16.974Z,5.05
2023-04-30T05:33:46.106Z,8.15
2023-04-30T05:36:14.707Z,8.00
2023-04-30T05:38:42.771Z,5.63
2023-04-30T05:41:12.700Z,5.72
2023-04-30T05:43:40.576Z,6.10
2023-04-30T05:46:08.363Z,7.63
2023-04-30T05:48:36.180Z,6.63
2023-04-30T05:51:05.989Z,6.53
2023-04-30T05:53:33.994Z,6.55
2023-04-30T05:56:01.954Z,5.63
2023-04-30T05:58:31.325Z,5.38
2023-04-30T06:00:59.904Z,4.35
2023-04-30T06:03:27.785Z,4.10
2023-04-30T06:05:55.584Z,3.75
2023-04-30T06:08:23.472Z,3.67
2023-04-30T06:10:51.837Z,3.28
2023-04-30T06:13:19.976Z,3.65
2023-04-30T06:15:49.198Z,2.67
2023-04-30T06:18:17.278Z,3.33
2023-04-30T06:20:45.042Z,3.25
2023-04-30T06:23:12.811Z,3.03
2023-04-30T06:25:40.589Z,2.35
2023-04-30T06:28:10.157Z,3.00
2023-04-30T06:30:38.068Z,3.03
2023-04-30T06:33:07.279Z,3.05
2023-04-30T06:35:35.527Z,2.88
2023-04-30T06:38:03.420Z,3.05
2023-04-30T06:40:31.230Z,2.55
2023-04-30T06:42:59.374Z,2.65
2023-04-30T06:45:27.204Z,2.72
2023-04-30T06:47:55.305Z,2.70
2023-04-30T06:50:24.447Z,2.58
2023-04-30T06:52:52.306Z,2.58
2023-04-30T06:55:20.186Z,2.67
2023-04-30T06:57:48.021Z,3.10
2023-04-30T07:00:16.819Z,2.47
2023-04-30T07:02:45.577Z,2.90
2023-04-30T07:05:13.552Z,3.38
2023-04-30T07:07:42.757Z,2.90
2023-04-30T07:10:10.787Z,2.75
2023-04-30T07:12:38.563Z,3.03
2023-04-30T07:15:06.960Z,2.35
2023-04-30T07:17:35.290Z,2.90
2023-04-30T07:20:04.472Z,3.05
2023-04-30T07:22:32.455Z,2.35
2023-04-30T07:25:01.850Z,2.58
2023-04-30T07:27:29.596Z,2.55
2023-04-30T07:29:57.603Z,2.92
2023-04-30T07:32:27.222Z,3.03
2023-04-30T07:34:55.093Z,3.00
2023-04-30T07:37:22.865Z,3.38
2023-04-30T07:39:50.725Z,3.10
2023-04-30T07:42:19.905Z,2.83
2023-04-30T07:44:48.865Z,3.10
2023-04-30T07:47:20.221Z,2.17
2023-04-30T07:49:48.711Z,2.63
2023-04-30T07:52:16.501Z,3.00
2023-04-30T07:54:44.356Z,2.92
2023-04-30T07:57:13.019Z,3.53
2023-04-30T07:59:42.277Z,2.90
2023-04-30T08:02:10.819Z,3.13
2023-04-30T08:04:38.678Z,3.08
2023-04-30T08:07:07.601Z,3.15
2023-04-30T08:09:35.431Z,3.03
2023-04-30T08:12:05.043Z,2.80
2023-04-30T08:14:33.249Z,3.30
2023-04-30T08:17:03.190Z,3.47
2023-04-30T08:19:31.450Z,2.72
2023-04-30T08:21:59.953Z,3.55
2023-04-30T08:24:27.834Z,3.00
2023-04-30T08:26:55.590Z,3.05
2023-04-30T08:29:33.766Z,2.72
2023-04-30T08:32:05.764Z,3.00
2023-04-30T08:34:33.656Z,3.00
2023-04-30T08:37:01.544Z,3.20
2023-04-30T08:39:30.061Z,3.05
2023-04-30T08:41:57.895Z,2.85
2023-04-30T08:44:27.775Z,3.20
2023-04-30T08:46:56.288Z,3.17
2023-04-30T08:49:26.278Z,2.83
2023-04-30T08:51:54.109Z,2.92
2023-04-30T08:54:22.440Z,3.13
2023-04-30T08:56:51.262Z,2.83
2023-04-30T08:59:19.473Z,2.95
2023-04-30T09:01:47.743Z,2.92
2023-04-30T09:04:15.686Z,2.83
2023-04-30T09:06:45.212Z,2.95
2023-04-30T09:12:43.521Z,2.70
2023-04-30T09:15:12.662Z,3.17
2023-04-30T09:17:40.588Z,2.97
2023-04-30T09:20:09.422Z,2.40
2023-04-30T09:22:39.504Z,2.85
2023-04-30T09:25:07.977Z,3.20
2023-04-30T09:27:35.943Z,2.55
2023-04-30T09:30:04.769Z,3.00
2023-04-30T09:32:32.929Z,2.92
2023-04-30T09:35:00.982Z,2.70
2023-04-30T09:37:37.724Z,2.80
2023-04-30T09:40:06.007Z,3.35
2023-04-30T09:42:34.068Z,2.58
2023-04-30T09:45:02.069Z,2.63
2023-04-30T09:47:30.995Z,2.60
2023-04-30T09:50:00.846Z,3.30
2023-04-30T09:52:28.723Z,2.70
2023-04-30T09:54:57.992Z,3.35
2023-04-30T09:57:26.371Z,3.08
2023-04-30T09:59:54.735Z,3.03
2023-04-30T10:02:23.826Z,3.08
2023-04-30T10:04:55.533Z,2.63
2023-04-30T10:07:26.223Z,2.60
2023-04-30T10:09:58.390Z,2.30
2023-04-30T10:12:31.801Z,2.20
2023-04-30T10:15:04.281Z,2.80
2023-04-30T10:17:34.202Z,2.45
2023-04-30T10:20:05.166Z,2.28
2023-04-30T10:22:33.997Z,2.47
2023-04-30T10:25:02.381Z,3.03
2023-04-30T10:27:33.121Z,2.22
2023-04-30T10:30:01.253Z,2.80
2023-04-30T10:32:32.765Z,2.45
2023-04-30T10:35:06.269Z,2.50
2023-04-30T10:37:39.454Z,3.22
2023-04-30T10:40:09.242Z,2.70
2023-04-30T10:42:38.923Z,2.50
2023-04-30T10:45:11.268Z,2.35
2023-04-30T10:47:40.106Z,2.45
2023-04-30T10:50:09.752Z,2.10
2023-04-30T10:52:39.028Z,2.33
2023-04-30T10:55:07.559Z,2.45
2023-04-30T10:57:43.753Z,2.10
2023-04-30T11:00:20.801Z,2.38
2023-04-30T11:02:49.797Z,3.03
2023-04-30T11:05:18.965Z,2.53
2023-04-30T11:07:50.530Z,3.10
2023-04-30T11:10:21.601Z,2.70
2023-04-30T11:12:51.579Z,2.35
2023-04-30T11:15:32.768Z,2.08
2023-04-30T11:18:00.845Z,2.33
2023-04-30T11:20:29.100Z,2.72
2023-04-30T11:23:09.258Z,2.38
2023-04-30T11:25:40.939Z,2.78
2023-04-30T11:28:14.197Z,1.88
2023-04-30T11:30:44.207Z,2.53
2023-04-30T11:33:12.066Z,2.47
2023-04-30T11:35:40.378Z,2.65
2023-04-30T11:38:09.227Z,2.33
2023-04-30T11:40:37.838Z,2.17
2023-04-30T11:43:05.614Z,2.47
2023-04-30T11:45:34.733Z,2.28
2023-04-30T11:48:02.685Z,2.85
2023-04-30T11:50:34.529Z,2.38
2023-04-30T11:53:05.262Z,1.80
2023-04-30T11:55:33.214Z,1.63
2023-04-30T11:58:00.975Z,1.88
2023-04-30T12:00:29.849Z,2.03
2023-04-30T12:03:01.064Z,2.30
2023-04-30T12:05:29.162Z,1.77
2023-04-30T12:07:57.562Z,2.28
2023-04-30T12:10:26.023Z,2.03
2023-04-30T12:12:54.652Z,1.67
2023-04-30T12:15:27.132Z,2.63
2023-04-30T12:17:55.989Z,1.98
2023-04-30T12:20:27.466Z,1.90
2023-04-30T12:22:55.342Z,2.10
2023-04-30T12:25:24.007Z,1.92
2023-04-30T12:27:53.156Z,2.05
2023-04-30T12:30:22.273Z,2.15
2023-04-30T12:32:51.274Z,2.00
2023-04-30T12:35:21.155Z,2.08
2023-04-30T12:37:52.238Z,2.22
2023-04-30T12:40:20.785Z,2.15
2023-04-30T12:42:48.987Z,2.38
2023-04-30T12:45:32.308Z,1.80
2023-04-30T12:50:28.354Z,1.70
2023-04-30T12:53:02.723Z,2.00
2023-04-30T12:55:31.143Z,1.98
2023-04-30T12:58:06.129Z,1.48
2023-04-30T13:00:47.676Z,2.15
2023-04-30T13:03:16.890Z,1.45
2023-04-30T13:05:47.536Z,1.85
2023-04-30T13:08:16.967Z,1.48
2023-04-30T13:10:45.266Z,1.85
2023-04-30T13:13:13.472Z,1.48
2023-04-30T13:15:41.459Z,1.50
2023-04-30T13:18:09.773Z,1.23
2023-04-30T13:20:37.829Z,2.17
2023-04-30T13:23:06.364Z,1.52
2023-04-30T13:25:36.316Z,1.63
2023-04-30T13:28:04.190Z,1.23
2023-04-30T13:30:32.029Z,2.10
2023-04-30T13:32:59.839Z,1.83
2023-04-30T13:35:27.772Z,1.95
2023-04-30T13:37:55.962Z,1.60
2023-04-30T13:40:25.310Z,1.75
2023-04-30T13:42:54.792Z,1.60
2023-04-30T13:45:23.335Z,1.88
2023-04-30T13:47:51.531Z,1.60
2023-04-30T13:50:19.368Z,1.98
2023-04-30T13:52:47.209Z,1.90
2023-04-30T13:55:15.023Z,1.55
2023-04-30T13:57:43.117Z,1.33
2023-04-30T14:00:13.170Z,1.80
2023-04-30T14:02:42.367Z,1.23
2023-04-30T14:05:10.731Z,1.50
2023-04-30T14:07:38.869Z,1.92
2023-04-30T14:10:07.369Z,1.38
2023-04-30T14:12:36.223Z,1.23
2023-04-30T14:22:02.328Z,1.98
2023-04-30T14:24:30.980Z,2.00
2023-04-30T14:26:59.988Z,2.08
2023-04-30T14:29:27.774Z,2.08
2023-04-30T14:31:55.609Z,1.77
2023-04-30T14:34:24.518Z,1.83
2023-04-30T14:36:52.561Z,1.88
2023-04-30T14:39:21.781Z,1.63
2023-04-30T14:41:51.138Z,1.77
2023-04-30T14:44:19.792Z,1.67
2023-04-30T14:46:48.137Z,1.92
2023-04-30T14:49:16.201Z,2.33
2023-04-30T14:51:44.260Z,2.00
2023-04-30T14:54:12.724Z,2.28
2023-04-30T14:56:42.366Z,1.83
2023-04-30T14:59:10.126Z,2.13
2023-04-30T15:01:37.996Z,2.20
2023-04-30T15:04:05.958Z,2.08
2023-04-30T15:06:33.988Z,2.13
2023-04-30T15:09:02.327Z,1.98
2023-04-30T15:11:30.122Z,1.90
2023-04-30T15:13:59.319Z,2.00
2023-04-30T15:16:27.528Z,1.98
2023-04-30T15:18:55.431Z,2.42
2023-04-30T15:21:23.451Z,2.30
2023-04-30T15:23:51.286Z,1.90
2023-04-30T15:26:19.111Z,1.98
2023-04-30T15:28:47.255Z,2.30
2023-04-30T15:31:16.551Z,2.22
2023-04-30T15:33:44.439Z,1.83
2023-04-30T15:36:12.255Z,2.03
2023-04-30T15:38:40.390Z,2.40
2023-04-30T15:41:08.199Z,2.60
2023-04-30T15:43:38.658Z,1.70
2023-04-30T15:46:06.495Z,2.25
2023-04-30T15:48:35.927Z,2.83
2023-04-30T15:51:03.705Z,2.53
2023-04-30T15:53:31.474Z,2.47
2023-04-30T15:55:59.608Z,2.92
2023-04-30T15:58:27.393Z,2.65
2023-04-30T16:00:55.406Z,1.95
2023-04-30T16:03:23.414Z,2.65
2023-04-30T16:05:52.658Z,1.42
2023-04-30T16:08:20.778Z,1.90
2023-04-30T16:10:48.631Z,1.80
2023-04-30T16:13:16.542Z,2.00
2023-04-30T16:15:44.432Z,1.50
2023-04-30T16:18:12.344Z,2.50
2023-04-30T16:20:42.160Z,1.98
2023-04-30T16:25:39.015Z,2.00
2023-04-30T16:28:06.913Z,2.17
2023-04-30T16:30:35.173Z,1.85
2023-04-30T16:33:03.202Z,2.33
2023-04-30T16:35:31.499Z,1.70
2023-04-30T16:37:59.313Z,2.15
2023-04-30T16:40:28.579Z,2.13
2023-04-30T16:42:56.723Z,2.40
2023-04-30T16:45:24.714Z,1.92
2023-04-30T16:47:53.202Z,1.85
2023-04-30T16:50:21.000Z,1.95
2023-04-30T16:52:48.744Z,2.08
2023-04-30T16:55:16.578Z,1.95
2023-04-30T16:57:45.797Z,1.83
2023-04-30T17:00:16.724Z,1.80
2023-04-30T17:02:45.725Z,1.65
2023-04-30T17:05:14.902Z,2.22
2023-04-30T17:07:43.286Z,2.40
2023-04-30T17:10:11.771Z,1.85
2023-04-30T17:12:39.952Z,2.25
2023-04-30T17:15:09.536Z,1.88
2023-04-30T17:17:37.462Z,1.90
2023-04-30T17:20:06.056Z,3.15
2023-04-30T17:22:33.854Z,2.42
2023-04-30T17:25:02.189Z,1.98
2023-04-30T17:27:30.259Z,2.03
2023-04-30T17:29:58.349Z,2.20
2023-04-30T17:32:28.110Z,2.20
2023-04-30T17:34:55.930Z,2.08
2023-04-30T17:37:23.905Z,2.00
2023-04-30T17:39:51.650Z,1.90
2023-04-30T17:42:19.829Z,1.65
2023-04-30T17:44:48.774Z,2.13
2023-04-30T17:47:16.827Z,2.20
2023-04-30T17:49:46.181Z,2.38
2023-04-30T17:52:14.123Z,2.35
2023-04-30T17:54:42.153Z,2.83
2023-04-30T17:57:10.248Z,2.72
2023-04-30T17:59:39.445Z,2.60
2023-04-30T18:02:07.738Z,2.20
2023-04-30T18:04:35.581Z,2.05
2023-04-30T18:07:04.694Z,2.55
2023-04-30T18:09:32.449Z,2.30
2023-04-30T18:12:00.370Z,2.70
2023-04-30T18:14:28.300Z,2.20
2023-04-30T18:16:56.590Z,2.60
2023-04-30T18:19:24.445Z,2.55
2023-04-30T18:21:53.562Z,2.38
2023-04-30T18:24:27.490Z,2.53
2023-04-30T18:26:55.508Z,2.95
2023-04-30T18:29:24.117Z,2.38
2023-04-30T18:31:52.030Z,2.60
2023-04-30T18:34:20.021Z,1.98
2023-04-30T18:36:47.798Z,2.92
2023-04-30T18:39:15.759Z,3.08
2023-04-30T18:41:45.120Z,2.72
2023-04-30T18:44:13.556Z,2.92
2023-04-30T18:46:42.790Z,3.92
2023-04-30T18:49:10.612Z,2.28
2023-04-30T18:51:38.568Z,3.40
2023-04-30T18:54:06.375Z,2.92
2023-04-30T18:56:34.340Z,2.20
2023-04-30T18:59:03.513Z,2.65
2023-04-30T19:01:31.925Z,2.72
2023-04-30T19:03:59.824Z,3.22
2023-04-30T19:06:28.540Z,3.65
2023-04-30T19:08:56.577Z,2.92
2023-04-30T19:11:24.689Z,3.22
2023-04-30T19:13:52.524Z,2.72
2023-04-30T19:16:21.977Z,3.00
2023-04-30T19:18:49.791Z,2.55
2023-04-30T19:21:17.623Z,2.45
2023-04-30T19:23:45.348Z,2.50
2023-04-30T19:26:13.409Z,2.83
2023-04-30T19:28:41.221Z,2.20
2023-04-30T19:31:09.051Z,2.80
2023-04-30T19:33:39.589Z,2.90
2023-04-30T19:36:07.422Z,3.05
2023-04-30T19:38:35.185Z,2.90
2023-04-30T19:41:03.280Z,2.35
2023-04-30T19:43:31.467Z,3.60
2023-04-30T19:45:59.741Z,2.58
2023-04-30T19:48:27.780Z,3.00
2023-04-30T19:50:58.140Z,2.90
2023-04-30T19:53:26.363Z,3.25
2023-04-30T19:55:54.155Z,2.58
2023-04-30T19:58:21.937Z,3.22
2023-04-30T20:00:50.308Z,3.75
2023-04-30T20:03:19.758Z,3.25
2023-04-30T20:05:47.856Z,3.40
2023-04-30T20:08:17.190Z,2.47
2023-04-30T20:10:46.961Z,2.35
2023-04-30T20:13:15.928Z,2.83
2023-04-30T20:15:43.717Z,2.85
2023-04-30T20:18:12.667Z,2.70
2023-04-30T20:20:40.727Z,2.55
2023-04-30T20:23:14.038Z,3.30
2023-04-30T20:25:45.429Z,3.40
2023-04-30T20:28:13.958Z,3.92
2023-04-30T20:30:42.927Z,4.05
2023-04-30T20:33:11.088Z,5.28
2023-04-30T20:35:40.612Z,5.35
2023-04-30T20:38:08.428Z,5.45
2023-04-30T20:40:40.222Z,5.32
2023-04-30T20:43:10.309Z,5.85
2023-04-30T20:45:38.206Z,9.35
2023-04-30T20:48:06.785Z,33.83
2023-04-30T20:50:35.053Z,60.65
2023-04-30T20:53:02.946Z,46.17
2023-04-30T20:55:33.759Z,39.00
2023-04-30T20:58:01.726Z,39.88
2023-04-30T21:00:30.855Z,40.25
2023-04-30T21:02:58.789Z,40.67
2023-04-30T21:05:27.074Z,29.40
2023-04-30T21:07:54.878Z,22.75
2023-04-30T21:10:22.681Z,16.25
2023-04-30T21:12:50.701Z,12.35
2023-04-30T21:15:18.585Z,8.82
2023-04-30T21:17:48.338Z,8.80
2023-04-30T21:20:16.601Z,7.03
2023-04-30T21:22:44.359Z,6.65
2023-04-30T21:25:12.282Z,6.20
2023-04-30T21:27:40.627Z,6.28
2023-04-30T21:30:09.033Z,6.28
2023-04-30T21:32:36.856Z,6.05
2023-04-30T21:35:06.993Z,6.07
2023-04-30T21:37:34.893Z,6.43
2023-04-30T21:40:03.891Z,6.38
2023-04-30T21:42:31.863Z,5.82
2023-04-30T21:44:59.611Z,6.15
2023-04-30T21:47:27.863Z,5.70
2023-04-30T21:49:55.721Z,7.03
2023-04-30T21:52:25.143Z,6.55
2023-04-30T21:54:52.884Z,6.45
2023-04-30T21:57:21.687Z,6.60
2023-04-30T21:59:49.459Z,6.38
2023-04-30T22:02:24.017Z,6.43
2023-04-30T22:04:53.327Z,6.97
2023-04-30T22:07:21.623Z,7.05
2023-04-30T22:09:51.840Z,7.25
2023-04-30T22:12:21.380Z,7.13
2023-04-30T22:14:50.177Z,6.38
2023-04-30T22:17:18.281Z,6.72
2023-04-30T22:19:46.136Z,6.85
2023-04-30T22:22:14.159Z,6.72
2023-04-30T22:24:41.911Z,7.60
2023-04-30T22:27:11.315Z,7.25
2023-04-30T22:29:39.503Z,7.75
2023-04-30T22:32:07.507Z,8.27
2023-04-30T22:34:38.567Z,8.38
2023-04-30T22:37:06.361Z,9.55
2023-04-30T22:39:34.135Z,9.50
2023-04-30T22:42:02.287Z,9.02
2023-04-30T22:44:31.463Z,8.13
2023-04-30T22:46:59.886Z,8.70
2023-04-30T22:49:31.528Z,9.55
2023-04-30T22:51:59.784Z,10.38
2023-04-30T22:54:27.595Z,9.20
2023-04-30T22:56:55.354Z,9.40
2023-04-30T22:59:24.680Z,9.02
2023-04-30T23:01:54.011Z,8.43
2023-04-30T23:04:21.762Z,8.98
2023-04-30T23:06:49.696Z,8.25
2023-04-30T23:09:17.840Z,7.25
2023-04-30T23:11:45.766Z,6.80
2023-04-30T23:14:13.499Z,7.00
2023-04-30T23:16:42.797Z,7.47
2023-04-30T23:19:12.570Z,6.38
2023-04-30T23:21:40.629Z,6.90
2023-04-30T23:24:08.376Z,6.00
2023-04-30T23:26:36.124Z,6.03
2023-04-30T23:29:04.219Z,6.13
2023-04-30T23:31:32.061Z,6.10
2023-04-30T23:33:59.881Z,5.47
2023-04-30T23:36:29.041Z,5.97
2023-04-30T23:38:56.969Z,5.97
2023-04-30T23:41:24.829Z,6.10
2023-04-30T23:43:52.935Z,5.13
2023-04-30T23:46:20.753Z,5.43
2023-04-30T23:48:49.646Z,5.45
2023-04-30T23:51:18.689Z,5.43
2023-04-30T23:53:47.804Z,5.05
2023-04-30T23:56:15.534Z,5.75
2023-04-30T23:58:43.801Z,5.43
